OMA weather

Eppley Airfield
Omaha, Nebraska, United States

Public forecast

Using degrees Fahrenheit for public forecast. Weather courtesy of forecast.io.

METAR (pilot weather report)

Retrieved 2019/05/25 21:52 UTC (30 minutes ago):

KOMA 252152Z 36008KT 10SM BKN065 BKN140 BKN250 26/14 A2995 RMK AO2 SLP133 T02560144

TAF (pilot weather forecast)

Retrieved 2019/05/25 18:30 UTC (4 hours ago):

TAF KOMA 251729Z 2518/2618 VRB06KT P6SM BKN050 FM260500 VRB04KT P6SM VCSH OVC040 FM261200 VRB05KT P6SM BKN035